Main page
METAR-TAF:

METAR-TAF

Airports :

Balmaceda Airport

Balmaceda, Chile

latitude: 45-55S, longitude: 071-41W, elevation: 520 m

Current weather observation

The report was made 3 hours and 49 minutes ago, at 01:00 UTC
Wind 20 kt from the West/Northwest
Temperature 3°C
Humidity 87%
Pressure 1001 hPa
Visibility 10 km or more

METAR: SCBA 180100Z AUTO 29020KT 9999 NCD 03/01 Q1001

Time: 00:49 (04:49 UTC)

Forecast

The report was made 6 hours and 29 minutes ago, at 22:20 UTC
Forecast valid from 18 at 00 UTC to 18 at 24 UTC
Wind 10 kt from the West/Northwest
Visibility 10 km or more
Scattered clouds at a height of 2000 ft
Broken clouds at a height of 3000 ft
Becoming
from 18 at 04 UTC to 18 at 06 UTC
Broken clouds at a height of 3000 ft
Becoming
from 18 at 10 UTC to 18 at 12 UTC
Scattered clouds at a height of 3500 ft

TAF: SCBA 172220Z 1800/1824 30010KT 9999 SCT020 BKN030 TNM02/1810Z TX03/1819Z BECMG 1804/1806 BKN030 BECMG 1810/1812 SCT035

Weather observations and forecasts of more than 4000 airports (METAR and TAF reports).

The available stations are represented by yellow and red dots on the map.

Hover mouse over dot to see the name of the station.

Then click to see weather observations and forecasts.

To change the map : click on the green buttons with a black cross to zoom in, on the green button with a dash to zoom out, or on the green arrows for adjacent maps.


METAR-TAF: